Detall de PIREP

Printer-friendly versionPDF version

[2014/08/07 08:35:00]
Flight IATA:CT1004
Pilot Number:042
Company ICAO:CAT
Aircraft Type:B738/F
PAX:96
Departing Airport: LOWI
Destination Airport: LEIB
Alternate Airport:LEBL
Online: VATSIM
Route:RTT Y703 INN UM726 BZO UM984 EVANO UN850 POS
Flight Level:F330
No Slew and time accel
No pause
Crash detect
Detect pilot in Cockpit between each 30 and 45 minutes
08:35 Zero fuel Weight: 121807 Lbs, Fuel Weight: 45361 Lbs
08:35 VATSIM:LOWI 070820Z VRB01KT 9999 FEW015 SCT070 BKN090 18/15 Q1018 NOSIG
08:35 VATSIM:LEIB 070800Z 19004KT 9999 SCT022 28/20 Q1016 NOSIG
08:36 Parking Brakes off
08:43 Take-off
08:43 Take off Weight: 166312 Lbs
08:43 Wind: 166º @ 001 Knots Heading: 261º
08:43 POS N47º 15´ 29´´ E011º 19´ 28´´
08:43 Flaps:4 at 156 Knots
08:43 Gear Up: 152 Knots
08:43 Flaps:3 at 126 Knots
08:44 Flaps:2 at 149 Knots
08:45 Flaps:1 at 163 Knots
08:47 Flaps:0 at 180 Knots
08:58 Wind:174º@001 Knots Heading: 153º Ground Speed: 448 Knots Altitude 20396 ft
09:13 Wind:023º@000 Knots Heading: 243º Ground Speed: 437 Knots Altitude 27552 ft
09:28 Wind:112º@002 Knots Heading: 176º Ground Speed: 479 Knots Altitude 31023 ft
09:43 Wind:085º@003 Knots Heading: 214º Ground Speed: 501 Knots Altitude 30990 ft
09:58 Wind:333º@004 Knots Heading: 215º Ground Speed: 504 Knots Altitude 31020 ft
10:13 Wind:059º@003 Knots Heading: 242º Ground Speed: 494 Knots Altitude 31079 ft
10:28 Wind:120º@005 Knots Heading: 241º Ground Speed: 391 Knots Altitude 15223 ft
10:31 Flaps:1 at 254 Knots
10:31 Flaps:2 at 251 Knots
10:34 Flaps:3 at 198 Knots
10:43 Wind:099º@008 Knots Heading: 076º Ground Speed: 193 Knots Altitude 3064 ft
10:45 Gear Down: 194 Knots
10:45 Flaps:4 at 194 Knots
10:45 Flaps:5 at 190 Knots
10:46 Flaps:6 at 183 Knots
10:46 Flaps:7 at 171 Knots
10:48 TouchDown:Rate -63 ft/min Speed: 149 Knots
10:49 VATSIM:LEIB 071030Z 10007KT 9999 SCT024 29/21 Q1017 NOSIG
10:49 Land
10:49 Wind:099º@006 Knots
10:49 Heading: 061º
10:49 Flight Duration: 02:06
10:49 Landing Weight: 153080 Lbs
10:49 POS N38º 52´ 25´´ E001º 22´ 31´´
10:55 Parking brakes on
10:55 Block to Block Duration: 02:19
10:55 Final Fuel: 30685 Lbls
10:55 Spent Fuel: 14675 Lbls
10:55 Flight Length: 876 NM
10:55 TOD Land Length: 876 NM

Exportar CSV

Powered by Drupal - Modified by Danger4k